Ratari, Serbia
Current Conditions -  °F | °C
As of 8:30 AM on Friday 19 Dec 2014 (Local Time) from LYKV Reporting Station
Moderate Fog Moderate Fog  
Wind Chill: 32°   Ceiling: Unl
Heat Index: 32°   Visibility: 0.03mi
Dew Point: 32°   Wind: 1mph
Humidity: 100%   Direction: NA
Pressure: 30.24"   Gusts: NA
Location:  44.36°N, 20.84°E
Report Text: LYKV 190630Z VRB01KT 0050 FZFG VV/// M00/M00 Q1024 NOSIG
Loading
Personal Weather Stations






























Interactive Weather Map New forecast layout! Learn more

10-Day Weather Forecast

Advertisements
Track Severe Weather on mobile